Time;durP1;ratioP1;P1;durP2;ratioP2;P2;SDS_P1;SDS_P2;PMS_P1;PMS_P2;Temp;Humidity;BMP_temperature;BMP_pressure;BME280_temperature;BME280_humidity;BME280_pressure;Samples;Min_cycle;Max_cycle;Signal;HPM_P1;HPM_P2
2024/02/13 00:00:09;;;;;;;44.33;5.40;;;;;;;;;;5020223;28;20031;-40
2024/02/13 00:02:37;;;;;;;30.95;4.82;;;;;;;;;;5015519;28;20029;-41
2024/02/13 00:05:07;;;;;;;20.17;4.38;;;;;;;;;;5013822;28;20535;-39
2024/02/13 00:07:41;;;;;;;27.42;4.32;;;;;;;;;;5012872;28;20050;-40
2024/02/13 00:10:11;;;;;;;32.10;4.88;;;;;;;;;;5017646;28;20029;-43
2024/02/13 00:12:39;;;;;;;35.72;5.10;;;;;;;;;;5013917;28;20025;-40
2024/02/13 00:15:06;;;;;;;37.38;4.97;;;;;;;;;;5011885;28;20041;-41
2024/02/13 00:17:35;;;;;;;29.13;4.28;;;;;;;;;;5019116;28;20052;-40
2024/02/13 00:20:08;;;;;;;31.80;5.15;;;;;;;;;;5014992;28;20049;-39
2024/02/13 00:22:38;;;;;;;27.63;5.32;;;;;;;;;;5013418;28;20037;-41
2024/02/13 00:25:06;;;;;;;39.42;5.20;;;;;;;;;;5012509;28;20029;-41
2024/02/13 00:27:33;;;;;;;23.70;5.78;;;;;;;;;;5014377;28;20029;-39
2024/02/13 00:30:03;;;;;;;25.02;5.35;;;;;;;;;;5013341;28;20018;-38
2024/02/13 00:32:31;;;;;;;30.52;5.43;;;;;;;;;;5014540;28;20392;-39
2024/02/13 00:34:59;;;;;;;26.38;6.32;;;;;;;;;;5014580;28;20026;-39
2024/02/13 00:37:25;;;;;;;28.45;5.57;;;;;;;;;;5017688;28;20040;-42
2024/02/13 00:39:54;;;;;;;29.20;6.03;;;;;;;;;;5024850;28;20045;-41
2024/02/13 00:42:21;;;;;;;56.55;7.30;;;;;;;;;;5019502;28;20041;-44
2024/02/13 00:44:49;;;;;;;37.97;6.22;;;;;;;;;;5016061;28;20439;-40
2024/02/13 00:47:17;;;;;;;34.70;6.18;;;;;;;;;;5025090;28;20044;-40
2024/02/13 00:49:44;;;;;;;24.00;5.82;;;;;;;;;;5033982;28;20025;-40
2024/02/13 00:52:11;;;;;;;25.08;6.30;;;;;;;;;;5025369;28;20113;-41
2024/02/13 00:54:38;;;;;;;32.50;6.55;;;;;;;;;;5014111;28;20463;-40
2024/02/13 00:57:05;;;;;;;44.08;8.13;;;;;;;;;;5013904;28;20368;-39
2024/02/13 00:59:32;;;;;;;39.28;7.35;;;;;;;;;;5013482;28;20025;-39
2024/02/13 01:01:59;;;;;;;41.47;7.60;;;;;;;;;;5013454;28;20026;-39
2024/02/13 01:04:26;;;;;;;43.80;7.55;;;;;;;;;;5013694;28;20026;-39
2024/02/13 01:06:53;;;;;;;47.15;7.72;;;;;;;;;;5013391;28;20076;-39
2024/02/13 01:09:20;;;;;;;40.25;7.20;;;;;;;;;;5013523;28;20040;-39
2024/02/13 01:11:48;;;;;;;32.35;6.47;;;;;;;;;;5013380;28;20502;-39
2024/02/13 01:14:15;;;;;;;34.08;6.47;;;;;;;;;;5013156;28;20034;-39
2024/02/13 01:16:42;;;;;;;28.25;6.57;;;;;;;;;;5012956;28;20057;-41
2024/02/13 01:19:09;;;;;;;29.25;5.97;;;;;;;;;;5008462;28;20060;-41
2024/02/13 01:21:36;;;;;;;37.05;6.85;;;;;;;;;;5027689;28;20080;-41
2024/02/13 01:24:03;;;;;;;28.50;6.40;;;;;;;;;;5024839;28;20026;-40
2024/02/13 01:26:30;;;;;;;29.77;5.60;;;;;;;;;;5019485;28;20436;-41
2024/02/13 01:28:57;;;;;;;27.52;5.63;;;;;;;;;;5030259;28;20088;-42
2024/02/13 01:31:24;;;;;;;40.13;6.05;;;;;;;;;;5028317;28;20057;-41
2024/02/13 01:33:51;;;;;;;32.03;5.97;;;;;;;;;;5022517;28;20026;-41
2024/02/13 01:36:19;;;;;;;26.40;5.80;;;;;;;;;;5023135;28;20030;-41
2024/02/13 01:38:46;;;;;;;25.83;6.70;;;;;;;;;;5034726;28;20095;-41
2024/02/13 01:41:14;;;;;;;30.10;6.07;;;;;;;;;;5038833;28;20479;-40
2024/02/13 01:43:41;;;;;;;27.17;6.25;;;;;;;;;;5021487;28;20695;-39
2024/02/13 01:46:08;;;;;;;26.35;6.45;;;;;;;;;;5008920;28;20057;-40
2024/02/13 01:48:38;;;;;;;27.10;6.63;;;;;;;;;;5029069;28;20029;-41
2024/02/13 01:51:08;;;;;;;27.88;5.30;;;;;;;;;;5028592;28;20034;-42
2024/02/13 01:53:36;;;;;;;25.17;5.82;;;;;;;;;;5026497;28;20040;-40
2024/02/13 01:56:04;;;;;;;24.27;5.85;;;;;;;;;;5030015;28;20022;-40
2024/02/13 01:58:32;;;;;;;22.98;5.97;;;;;;;;;;5032369;28;20500;-39
2024/02/13 02:00:59;;;;;;;26.40;6.00;;;;;;;;;;5023891;28;20025;-40
2024/02/13 02:03:33;;;;;;;24.70;6.30;;;;;;;;;;5027754;28;20037;-38
2024/02/13 02:06:01;;;;;;;26.25;5.80;;;;;;;;;;5034524;28;20029;-40
2024/02/13 02:08:28;;;;;;;34.95;6.40;;;;;;;;;;5016576;28;20038;-39
2024/02/13 02:10:58;;;;;;;45.33;6.57;;;;;;;;;;5013354;28;20044;-42
2024/02/13 02:13:26;;;;;;;34.75;6.43;;;;;;;;;;5024011;28;20033;-44
2024/02/13 02:15:54;;;;;;;42.58;6.82;;;;;;;;;;5025070;28;20501;-47
2024/02/13 02:18:21;;;;;;;34.03;6.35;;;;;;;;;;5017746;28;20059;-42
2024/02/13 02:20:48;;;;;;;25.92;5.72;;;;;;;;;;5001133;28;20120;-41
2024/02/13 02:23:18;;;;;;;24.45;5.68;;;;;;;;;;5024368;28;20029;-45
2024/02/13 02:25:46;;;;;;;25.65;6.00;;;;;;;;;;5025453;28;20032;-42
2024/02/13 02:28:15;;;;;;;58.50;7.97;;;;;;;;;;5035840;28;20036;-41
2024/02/13 02:30:45;;;;;;;35.58;6.10;;;;;;;;;;5031682;28;20075;-44
2024/02/13 02:33:12;;;;;;;36.83;6.18;;;;;;;;;;5030832;28;20147;-43
2024/02/13 02:35:41;;;;;;;29.50;5.65;;;;;;;;;;5036846;28;20364;-45
2024/02/13 02:38:09;;;;;;;31.08;5.60;;;;;;;;;;5025927;28;20049;-43
2024/02/13 02:40:40;;;;;;;29.77;5.53;;;;;;;;;;5020722;28;20025;-42
2024/02/13 02:43:07;;;;;;;31.02;5.28;;;;;;;;;;5027140;28;20025;-45
2024/02/13 02:45:34;;;;;;;30.65;5.55;;;;;;;;;;5029313;28;20045;-44
2024/02/13 02:48:01;;;;;;;28.38;5.53;;;;;;;;;;5022947;28;20387;-41
2024/02/13 02:50:28;;;;;;;26.10;4.47;;;;;;;;;;5024153;28;20029;-44
2024/02/13 02:52:58;;;;;;;26.05;4.55;;;;;;;;;;5024828;28;20360;-43
2024/02/13 02:55:25;;;;;;;22.27;4.72;;;;;;;;;;5033819;28;20029;-41
2024/02/13 02:57:52;;;;;;;30.27;5.25;;;;;;;;;;5023749;28;20068;-42
2024/02/13 03:00:20;;;;;;;35.30;5.63;;;;;;;;;;5018760;28;20026;-42
2024/02/13 03:02:47;;;;;;;20.35;4.05;;;;;;;;;;5023418;28;20479;-42
2024/02/13 03:05:16;;;;;;;24.45;4.40;;;;;;;;;;5031849;28;20810;-41
2024/02/13 03:07:45;;;;;;;22.90;4.13;;;;;;;;;;5029584;28;20025;-46
2024/02/13 03:10:13;;;;;;;18.90;3.45;;;;;;;;;;5011570;28;20038;-43
2024/02/13 03:12:40;;;;;;;25.55;4.60;;;;;;;;;;5019852;28;20064;-41
2024/02/13 03:15:07;;;;;;;22.45;4.25;;;;;;;;;;5028878;28;20025;-43
2024/02/13 03:17:36;;;;;;;22.23;3.92;;;;;;;;;;5027419;28;20053;-43
2024/02/13 03:20:03;;;;;;;17.92;3.90;;;;;;;;;;5026225;28;20049;-43
2024/02/13 03:22:35;;;;;;;24.75;3.90;;;;;;;;;;5023300;28;20033;-42
2024/02/13 03:25:04;;;;;;;19.77;3.78;;;;;;;;;;5027773;28;20036;-49
2024/02/13 03:27:31;;;;;;;23.10;4.40;;;;;;;;;;5027818;28;20025;-49
2024/02/13 03:29:58;;;;;;;22.15;4.03;;;;;;;;;;5028545;28;20037;-44
2024/02/13 03:32:25;;;;;;;16.70;3.97;;;;;;;;;;5026573;28;20391;-44
2024/02/13 03:34:53;;;;;;;20.55;4.03;;;;;;;;;;5034334;28;20386;-42
2024/02/13 03:37:22;;;;;;;18.90;4.32;;;;;;;;;;5034672;28;20037;-46
2024/02/13 03:39:50;;;;;;;23.08;3.97;;;;;;;;;;5037969;28;20044;-43
2024/02/13 03:42:17;;;;;;;17.08;3.53;;;;;;;;;;5036277;28;20029;-44
2024/02/13 03:44:45;;;;;;;18.95;3.28;;;;;;;;;;5033244;28;20064;-45
2024/02/13 03:47:12;;;;;;;15.20;3.53;;;;;;;;;;5044903;28;20044;-42
2024/02/13 03:49:40;;;;;;;16.08;3.17;;;;;;;;;;5041202;28;20024;-42
2024/02/13 03:52:09;;;;;;;19.00;4.03;;;;;;;;;;5034620;28;20123;-43
2024/02/13 03:54:36;;;;;;;14.80;3.20;;;;;;;;;;5034889;28;20034;-44
2024/02/13 03:57:03;;;;;;;16.30;3.08;;;;;;;;;;5034757;28;20060;-46
2024/02/13 03:59:30;;;;;;;17.63;3.50;;;;;;;;;;5035038;28;20052;-45
2024/02/13 04:01:58;;;;;;;18.65;3.45;;;;;;;;;;5034231;28;20022;-45
2024/02/13 04:04:25;;;;;;;12.70;2.88;;;;;;;;;;5024896;28;20510;-41
2024/02/13 04:06:52;;;;;;;19.88;3.40;;;;;;;;;;5028260;28;20021;-44
2024/02/13 04:09:19;;;;;;;17.23;3.78;;;;;;;;;;5030250;28;20040;-45
2024/02/13 04:11:46;;;;;;;15.73;3.75;;;;;;;;;;5034287;28;20060;-43
2024/02/13 04:14:13;;;;;;;12.05;3.35;;;;;;;;;;5032631;28;20026;-42
2024/02/13 04:16:44;;;;;;;13.88;2.63;;;;;;;;;;5032891;28;20041;-47
2024/02/13 04:19:12;;;;;;;12.00;3.05;;;;;;;;;;5027945;28;20038;-44
2024/02/13 04:21:39;;;;;;;15.75;2.88;;;;;;;;;;5022945;28;20071;-40
2024/02/13 04:24:06;;;;;;;18.25;3.08;;;;;;;;;;5024811;28;20383;-42
2024/02/13 04:26:34;;;;;;;13.13;3.22;;;;;;;;;;5023510;28;20028;-43
2024/02/13 04:29:01;;;;;;;11.88;3.10;;;;;;;;;;5022441;28;20088;-43
2024/02/13 04:31:28;;;;;;;13.32;3.08;;;;;;;;;;5019564;28;20025;-42
2024/02/13 04:33:55;;;;;;;15.50;3.58;;;;;;;;;;5014975;28;20036;-43
2024/02/13 04:36:22;;;;;;;18.83;3.30;;;;;;;;;;5015654;28;20113;-44
2024/02/13 04:38:49;;;;;;;19.73;3.55;;;;;;;;;;5010311;28;20407;-45
2024/02/13 04:41:18;;;;;;;14.75;3.30;;;;;;;;;;5015218;28;20069;-43
2024/02/13 04:43:45;;;;;;;16.20;3.55;;;;;;;;;;5008028;28;20080;-44
2024/02/13 04:46:12;;;;;;;12.95;2.55;;;;;;;;;;5012551;28;20103;-44
2024/02/13 04:48:39;;;;;;;13.32;3.28;;;;;;;;;;5007450;28;20356;-45
2024/02/13 04:51:06;;;;;;;20.80;3.33;;;;;;;;;;5009098;28;20026;-46
2024/02/13 04:53:33;;;;;;;10.57;2.45;;;;;;;;;;5010656;28;20037;-46
2024/02/13 04:56:00;;;;;;;9.50;2.63;;;;;;;;;;5011598;28;20060;-44
2024/02/13 04:58:34;;;;;;;13.07;2.95;;;;;;;;;;5017644;28;20040;-45
2024/02/13 05:01:09;;;;;;;16.95;3.40;;;;;;;;;;5003944;28;20116;-44
2024/02/13 05:07:19;;;;;;;14.93;3.03;;;;;;;;;;4994604;28;20137;-44
2024/02/13 05:09:11;;;;;;;11.80;2.60;;;;;;;;;;5017400;28;20060;-45
2024/02/13 05:11:41;;;;;;;10.90;2.47;;;;;;;;;;5019910;28;20030;-45
2024/02/13 05:14:08;;;;;;;10.65;2.63;;;;;;;;;;5019538;28;20509;-44
2024/02/13 05:16:38;;;;;;;11.32;2.67;;;;;;;;;;5018893;28;20076;-45
2024/02/13 05:19:08;;;;;;;9.70;2.38;;;;;;;;;;5031027;28;20063;-47
2024/02/13 05:21:36;;;;;;;11.80;2.10;;;;;;;;;;5037391;28;20036;-47
2024/02/13 05:24:06;;;;;;;14.40;3.05;;;;;;;;;;5032838;28;20025;-43
2024/02/13 05:26:34;;;;;;;10.15;2.10;;;;;;;;;;5028451;28;20045;-44
2024/02/13 05:29:03;;;;;;;11.32;2.35;;;;;;;;;;5023308;28;20112;-45
2024/02/13 05:31:30;;;;;;;7.22;2.30;;;;;;;;;;5031416;28;20037;-44
2024/02/13 05:33:57;;;;;;;13.20;2.40;;;;;;;;;;5032389;28;20208;-45
2024/02/13 05:36:25;;;;;;;13.23;2.85;;;;;;;;;;5032239;28;20053;-45
2024/02/13 05:38:52;;;;;;;12.00;2.58;;;;;;;;;;5031421;28;20045;-44
2024/02/13 05:41:19;;;;;;;13.20;2.50;;;;;;;;;;5031831;28;20037;-43
2024/02/13 05:43:46;;;;;;;12.02;2.40;;;;;;;;;;5032156;28;20461;-43
2024/02/13 05:46:13;;;;;;;10.65;2.50;;;;;;;;;;5031855;28;20158;-44
2024/02/13 05:48:44;;;;;;;12.70;2.75;;;;;;;;;;5031547;28;20373;-44
2024/02/13 05:51:14;;;;;;;10.85;2.58;;;;;;;;;;5030404;28;20446;-44
2024/02/13 05:53:44;;;;;;;11.95;2.63;;;;;;;;;;5014464;28;20044;-44
2024/02/13 05:56:14;;;;;;;12.25;2.50;;;;;;;;;;5012796;28;20025;-43
2024/02/13 05:58:41;;;;;;;6.38;1.95;;;;;;;;;;5012900;28;20030;-43
2024/02/13 06:01:12;;;;;;;11.65;2.72;;;;;;;;;;5010379;28;20042;-43
2024/02/13 06:03:40;;;;;;;9.45;2.33;;;;;;;;;;5013859;28;20376;-44
2024/02/13 06:06:08;;;;;;;8.90;2.58;;;;;;;;;;5026697;28;20033;-44
2024/02/13 06:08:35;;;;;;;11.05;2.50;;;;;;;;;;5032677;28;20129;-43
2024/02/13 06:11:02;;;;;;;14.40;2.70;;;;;;;;;;5032006;28;20434;-43
2024/02/13 06:13:31;;;;;;;12.75;2.47;;;;;;;;;;5032178;28;20029;-44
2024/02/13 06:15:58;;;;;;;8.93;2.25;;;;;;;;;;5032074;28;20025;-43
2024/02/13 06:18:25;;;;;;;12.00;2.55;;;;;;;;;;5031926;28;20100;-44
2024/02/13 06:20:53;;;;;;;8.43;2.50;;;;;;;;;;5031618;28;20080;-46
2024/02/13 06:23:20;;;;;;;13.07;2.67;;;;;;;;;;5031963;28;20040;-43
2024/02/13 06:25:47;;;;;;;8.48;2.25;;;;;;;;;;5031973;28;20025;-43
2024/02/13 06:28:14;;;;;;;8.70;2.35;;;;;;;;;;5032074;28;20057;-43
2024/02/13 06:30:43;;;;;;;7.63;2.20;;;;;;;;;;5031629;28;20017;-44
2024/02/13 06:33:11;;;;;;;7.05;2.05;;;;;;;;;;5031654;28;20491;-45
2024/02/13 06:35:42;;;;;;;10.98;2.50;;;;;;;;;;5031943;28;20537;-43
2024/02/13 06:38:09;;;;;;;8.75;2.42;;;;;;;;;;5029926;28;20057;-45
2024/02/13 06:40:36;;;;;;;9.48;1.90;;;;;;;;;;5031567;28;20029;-43
2024/02/13 06:43:03;;;;;;;9.75;2.20;;;;;;;;;;5031796;28;20057;-45
2024/02/13 06:45:31;;;;;;;7.40;1.90;;;;;;;;;;5030891;28;20037;-43
2024/02/13 06:47:58;;;;;;;7.35;2.10;;;;;;;;;;5031027;28;20025;-43
2024/02/13 06:50:25;;;;;;;7.40;2.38;;;;;;;;;;5031134;28;20033;-43
2024/02/13 06:52:54;;;;;;;12.07;2.10;;;;;;;;;;5030917;28;20022;-45
2024/02/13 06:55:21;;;;;;;11.32;2.63;;;;;;;;;;5029142;28;20447;-44
2024/02/13 06:57:48;;;;;;;6.10;1.75;;;;;;;;;;5029515;28;20048;-44
2024/02/13 07:00:16;;;;;;;9.88;2.60;;;;;;;;;;5030973;28;20048;-44
2024/02/13 07:02:43;;;;;;;8.85;2.60;;;;;;;;;;5029212;28;20033;-44
2024/02/13 07:05:11;;;;;;;9.82;1.92;;;;;;;;;;5031653;28;20021;-44
2024/02/13 07:07:38;;;;;;;12.35;2.30;;;;;;;;;;5031430;28;20045;-43
2024/02/13 07:10:05;;;;;;;9.63;2.45;;;;;;;;;;5031487;28;20029;-43
2024/02/13 07:12:33;;;;;;;10.70;2.20;;;;;;;;;;5031140;28;20021;-43
2024/02/13 07:15:00;;;;;;;9.57;2.50;;;;;;;;;;5031355;28;20036;-46
2024/02/13 07:17:27;;;;;;;7.95;2.25;;;;;;;;;;5031162;28;20040;-43
2024/02/13 07:19:54;;;;;;;10.20;2.45;;;;;;;;;;5031151;28;20045;-43
2024/02/13 07:22:21;;;;;;;10.32;2.25;;;;;;;;;;5031144;28;20037;-43
2024/02/13 07:24:48;;;;;;;9.13;1.92;;;;;;;;;;5030113;28;20033;-43
2024/02/13 07:27:16;;;;;;;10.15;2.38;;;;;;;;;;5031284;28;20021;-43
2024/02/13 07:29:44;;;;;;;8.77;2.58;;;;;;;;;;5031230;28;20383;-43
2024/02/13 07:32:11;;;;;;;11.35;2.58;;;;;;;;;;5030880;28;20037;-44
2024/02/13 07:34:40;;;;;;;7.20;2.20;;;;;;;;;;5013597;28;20029;-43
2024/02/13 07:37:08;;;;;;;8.88;2.35;;;;;;;;;;5031017;28;20037;-45
2024/02/13 07:39:35;;;;;;;9.15;2.38;;;;;;;;;;5031313;28;20060;-43
2024/02/13 07:42:02;;;;;;;8.30;2.53;;;;;;;;;;5030889;28;20105;-43
2024/02/13 07:44:29;;;;;;;10.13;2.47;;;;;;;;;;5031288;28;20100;-43
2024/02/13 07:46:57;;;;;;;13.32;2.40;;;;;;;;;;5031059;28;20025;-45
2024/02/13 07:49:24;;;;;;;11.10;2.42;;;;;;;;;;5013379;28;20527;-46
2024/02/13 07:51:52;;;;;;;8.35;2.30;;;;;;;;;;5030803;28;20030;-44
2024/02/13 07:54:21;;;;;;;8.27;2.85;;;;;;;;;;5031169;28;20032;-43
2024/02/13 07:56:48;;;;;;;7.50;2.40;;;;;;;;;;5031037;28;20041;-43
2024/02/13 07:59:15;;;;;;;11.50;2.63;;;;;;;;;;5013170;28;20025;-43
2024/02/13 08:01:45;;;;;;;8.85;2.47;;;;;;;;;;5030801;28;20029;-43
2024/02/13 08:04:12;;;;;;;9.20;2.60;;;;;;;;;;5031012;28;20068;-43
2024/02/13 08:06:39;;;;;;;10.93;2.53;;;;;;;;;;5030978;28;20429;-43
2024/02/13 08:09:06;;;;;;;13.38;2.95;;;;;;;;;;5030981;28;20030;-43
2024/02/13 08:11:34;;;;;;;7.40;2.38;;;;;;;;;;5029790;28;20033;-44
2024/02/13 08:14:01;;;;;;;11.43;2.45;;;;;;;;;;5030647;28;20029;-43
2024/02/13 08:16:29;;;;;;;7.45;2.47;;;;;;;;;;5030740;28;20021;-45
2024/02/13 08:18:56;;;;;;;8.65;2.30;;;;;;;;;;5030709;28;20064;-43
2024/02/13 08:21:23;;;;;;;9.00;2.60;;;;;;;;;;5030986;28;20132;-44
2024/02/13 08:23:50;;;;;;;10.57;2.60;;;;;;;;;;5030508;28;20483;-45
2024/02/13 08:26:17;;;;;;;12.60;3.20;;;;;;;;;;5034446;28;20025;-46
2024/02/13 08:28:44;;;;;;;12.98;3.10;;;;;;;;;;5034461;28;20036;-43
2024/02/13 08:31:11;;;;;;;7.90;2.55;;;;;;;;;;5034341;28;20029;-43
2024/02/13 08:33:40;;;;;;;13.00;2.97;;;;;;;;;;5034025;28;20029;-44
2024/02/13 08:36:11;;;;;;;8.18;2.47;;;;;;;;;;5034146;28;20471;-45
2024/02/13 08:38:42;;;;;;;14.40;2.90;;;;;;;;;;5034107;28;20045;-45
2024/02/13 08:41:12;;;;;;;10.00;2.90;;;;;;;;;;5034095;28;20025;-43
2024/02/13 08:43:39;;;;;;;9.20;2.80;;;;;;;;;;5033745;28;20030;-43
2024/02/13 08:46:06;;;;;;;8.68;2.90;;;;;;;;;;5034084;28;20017;-43
2024/02/13 08:48:33;;;;;;;18.17;3.28;;;;;;;;;;5034029;28;20120;-45
2024/02/13 08:51:00;;;;;;;10.40;2.97;;;;;;;;;;5034033;28;20025;-44
2024/02/13 08:53:27;;;;;;;8.65;2.92;;;;;;;;;;5033519;28;20030;-44
2024/02/13 08:55:55;;;;;;;7.50;2.88;;;;;;;;;;5032348;28;20033;-43
2024/02/13 08:58:22;;;;;;;12.35;3.47;;;;;;;;;;5033921;28;20546;-44
2024/02/13 09:00:49;;;;;;;12.57;3.45;;;;;;;;;;5033742;28;20029;-44
2024/02/13 09:03:16;;;;;;;13.90;3.47;;;;;;;;;;5033484;28;20025;-45
2024/02/13 09:05:43;;;;;;;11.05;3.50;;;;;;;;;;5033649;28;20549;-43
2024/02/13 09:08:10;;;;;;;11.45;3.63;;;;;;;;;;5033677;28;20029;-44
2024/02/13 09:10:38;;;;;;;11.93;3.63;;;;;;;;;;5033813;28;20032;-43
2024/02/13 09:13:05;;;;;;;11.30;3.45;;;;;;;;;;5033143;28;20116;-43
2024/02/13 09:15:32;;;;;;;10.73;3.97;;;;;;;;;;5033524;28;20022;-43
2024/02/13 09:17:59;;;;;;;10.88;3.35;;;;;;;;;;5033486;28;20061;-44
2024/02/13 09:20:26;;;;;;;10.20;3.70;;;;;;;;;;5033527;28;20041;-43
2024/02/13 09:22:55;;;;;;;13.68;3.67;;;;;;;;;;5033262;28;20030;-44
2024/02/13 09:25:22;;;;;;;12.30;3.30;;;;;;;;;;5033110;28;20053;-44
2024/02/13 09:27:49;;;;;;;11.45;4.00;;;;;;;;;;5033260;28;20084;-43
2024/02/13 09:30:17;;;;;;;12.25;3.53;;;;;;;;;;5033048;28;20021;-44
2024/02/13 09:32:46;;;;;;;10.13;3.70;;;;;;;;;;5033340;28;20025;-44
2024/02/13 09:35:13;;;;;;;12.50;3.15;;;;;;;;;;5032514;28;20506;-44
2024/02/13 09:37:40;;;;;;;13.57;3.35;;;;;;;;;;5032953;28;20055;-46
2024/02/13 09:40:18;;;;;;;8.50;3.30;;;;;;;;;;5033111;28;20096;-44
2024/02/13 09:42:45;;;;;;;11.95;3.50;;;;;;;;;;5031983;28;20041;-45
2024/02/13 09:45:16;;;;;;;13.15;3.75;;;;;;;;;;5032394;28;20511;-44
2024/02/13 09:47:43;;;;;;;12.52;3.80;;;;;;;;;;5032762;28;20537;-43
2024/02/13 09:50:14;;;;;;;7.03;3.30;;;;;;;;;;5032932;28;20371;-43
2024/02/13 09:52:48;;;;;;;7.80;2.80;;;;;;;;;;5032910;28;20028;-44
2024/02/13 09:55:15;;;;;;;11.07;3.28;;;;;;;;;;5032432;28;20064;-44
2024/02/13 09:57:43;;;;;;;9.80;3.22;;;;;;;;;;5032462;28;20041;-43
2024/02/13 10:00:11;;;;;;;13.25;2.83;;;;;;;;;;5032762;28;20104;-45
2024/02/13 10:02:42;;;;;;;8.60;2.80;;;;;;;;;;5032612;28;20029;-43
2024/02/13 10:05:10;;;;;;;13.52;2.90;;;;;;;;;;5032237;28;20079;-43
2024/02/13 10:07:43;;;;;;;9.80;2.92;;;;;;;;;;5032493;28;20487;-43
2024/02/13 10:10:11;;;;;;;10.10;2.72;;;;;;;;;;5032628;28;20400;-45
2024/02/13 10:12:39;;;;;;;7.75;1.95;;;;;;;;;;5032494;28;20013;-43
2024/02/13 10:15:08;;;;;;;9.45;1.95;;;;;;;;;;5032001;28;20068;-43
2024/02/13 10:17:35;;;;;;;9.20;2.30;;;;;;;;;;5032278;28;20064;-43
2024/02/13 10:20:03;;;;;;;5.80;2.22;;;;;;;;;;5032270;28;20539;-43
2024/02/13 10:22:30;;;;;;;7.45;2.08;;;;;;;;;;5032417;28;20032;-45
2024/02/13 10:25:00;;;;;;;5.80;2.08;;;;;;;;;;5031781;28;20033;-43
2024/02/13 10:27:28;;;;;;;12.60;2.85;;;;;;;;;;5030800;28;20479;-45
2024/02/13 10:29:55;;;;;;;8.15;2.63;;;;;;;;;;5031308;28;20064;-43
2024/02/13 10:32:23;;;;;;;9.90;2.83;;;;;;;;;;5032207;28;20040;-44
2024/02/13 10:34:50;;;;;;;9.70;2.30;;;;;;;;;;5031482;28;20072;-46
2024/02/13 10:37:17;;;;;;;12.20;2.50;;;;;;;;;;5031863;28;20104;-44
2024/02/13 10:39:47;;;;;;;9.23;2.15;;;;;;;;;;5031997;28;20387;-43
2024/02/13 10:42:17;;;;;;;9.40;2.55;;;;;;;;;;5031898;28;20796;-43
2024/02/13 10:44:45;;;;;;;9.60;2.40;;;;;;;;;;5031661;28;20021;-43
2024/02/13 10:47:16;;;;;;;7.47;2.53;;;;;;;;;;5031320;28;20397;-43
2024/02/13 10:49:58;;;;;;;8.32;2.15;;;;;;;;;;5031981;28;20021;-45
2024/02/13 10:52:26;;;;;;;7.85;2.00;;;;;;;;;;5031959;28;20103;-45
2024/02/13 10:54:55;;;;;;;10.02;2.50;;;;;;;;;;5031237;28;20491;-43
2024/02/13 10:57:23;;;;;;;15.65;2.90;;;;;;;;;;5031517;28;20561;-46
2024/02/13 10:59:50;;;;;;;7.72;2.28;;;;;;;;;;5031875;28;20111;-43
2024/02/13 11:02:20;;;;;;;9.48;2.45;;;;;;;;;;5031725;28;20053;-44
2024/02/13 11:04:48;;;;;;;8.05;2.35;;;;;;;;;;5031236;28;20093;-43
2024/02/13 11:07:15;;;;;;;7.20;2.17;;;;;;;;;;5031392;28;20041;-44
2024/02/13 11:09:42;;;;;;;9.98;2.30;;;;;;;;;;5031641;28;20021;-44
2024/02/13 11:12:10;;;;;;;7.40;2.55;;;;;;;;;;5031617;28;20045;-43
2024/02/13 11:14:37;;;;;;;9.48;2.60;;;;;;;;;;5030169;28;20029;-45
2024/02/13 11:17:11;;;;;;;8.07;2.65;;;;;;;;;;5030924;28;20038;-44
2024/02/13 11:19:42;;;;;;;8.23;2.58;;;;;;;;;;5044730;28;20071;-43
2024/02/13 11:22:09;;;;;;;10.75;3.08;;;;;;;;;;5051505;28;20534;-43
2024/02/13 11:24:51;;;;;;;7.40;1.85;;;;;;;;;;5051272;28;20108;-43
2024/02/13 11:27:26;;;;;;;9.00;2.40;;;;;;;;;;5050687;28;20029;-43
2024/02/13 11:30:00;;;;;;;9.15;2.38;;;;;;;;;;5051254;28;20079;-43
2024/02/13 11:32:28;;;;;;;9.65;2.22;;;;;;;;;;5051405;28;20043;-43
2024/02/13 11:34:59;;;;;;;9.88;2.28;;;;;;;;;;5051009;28;20067;-43
2024/02/13 11:37:30;;;;;;;9.85;2.67;;;;;;;;;;5050644;28;20494;-43
2024/02/13 11:40:00;;;;;;;11.88;2.72;;;;;;;;;;5051171;28;20044;-44
2024/02/13 11:42:34;;;;;;;8.70;2.70;;;;;;;;;;5033316;28;20087;-43
2024/02/13 11:45:07;;;;;;;9.07;2.60;;;;;;;;;;5050916;28;20021;-43
2024/02/13 11:47:35;;;;;;;9.63;2.30;;;;;;;;;;5050697;28;20021;-43
2024/02/13 11:50:03;;;;;;;10.23;2.20;;;;;;;;;;5050794;28;20033;-43
2024/02/13 11:52:30;;;;;;;10.57;2.17;;;;;;;;;;5051037;28;20071;-44
2024/02/13 11:54:57;;;;;;;13.27;2.40;;;;;;;;;;5051050;28;20057;-43
2024/02/13 11:57:27;;;;;;;58.33;4.85;;;;;;;;;;5050473;28;20033;-43
2024/02/13 11:59:57;;;;;;;11.13;2.78;;;;;;;;;;5044805;28;20104;-43
2024/02/13 12:02:24;;;;;;;10.13;2.88;;;;;;;;;;5035026;28;20432;-43
2024/02/13 12:04:51;;;;;;;14.52;2.90;;;;;;;;;;5035040;28;20391;-44
2024/02/13 12:07:18;;;;;;;11.05;2.67;;;;;;;;;;5034428;28;20025;-43
2024/02/13 12:09:50;;;;;;;8.57;2.35;;;;;;;;;;5034930;28;20056;-43
2024/02/13 12:12:17;;;;;;;11.35;2.63;;;;;;;;;;5034677;28;20029;-45
2024/02/13 12:14:44;;;;;;;11.35;2.47;;;;;;;;;;5034861;28;20021;-43
2024/02/13 12:17:12;;;;;;;8.75;2.47;;;;;;;;;;5034208;28;20037;-42
2024/02/13 12:19:39;;;;;;;7.38;2.08;;;;;;;;;;5034604;28;20045;-43
2024/02/13 12:22:08;;;;;;;9.82;2.50;;;;;;;;;;5033932;28;20045;-43
2024/02/13 12:24:36;;;;;;;7.35;2.75;;;;;;;;;;5033865;28;20029;-43
2024/02/13 12:27:04;;;;;;;10.02;2.50;;;;;;;;;;5033518;28;20031;-43
2024/02/13 12:29:38;;;;;;;15.32;2.88;;;;;;;;;;5033824;28;20100;-43
2024/02/13 12:32:06;;;;;;;14.45;3.17;;;;;;;;;;5032646;28;20040;-43
2024/02/13 12:34:33;;;;;;;12.95;2.67;;;;;;;;;;5033207;28;20105;-43
2024/02/13 12:37:00;;;;;;;14.82;2.40;;;;;;;;;;5032871;28;20534;-43
2024/02/13 12:39:27;;;;;;;9.13;2.40;;;;;;;;;;5031153;28;20021;-42
2024/02/13 12:41:57;;;;;;;9.43;2.35;;;;;;;;;;5033437;28;20026;-43
2024/02/13 12:44:24;;;;;;;8.02;2.03;;;;;;;;;;5033362;28;20032;-43
2024/02/13 12:46:52;;;;;;;8.18;2.67;;;;;;;;;;5032736;28;20091;-43
2024/02/13 12:49:22;;;;;;;9.52;2.70;;;;;;;;;;5033521;28;20071;-43
2024/02/13 12:51:49;;;;;;;10.68;2.45;;;;;;;;;;5030239;28;20120;-43
2024/02/13 12:54:18;;;;;;;6.00;2.00;;;;;;;;;;5032667;28;20037;-44
2024/02/13 12:56:46;;;;;;;9.27;2.40;;;;;;;;;;5031924;28;20029;-43
2024/02/13 12:59:13;;;;;;;8.95;2.50;;;;;;;;;;5014943;28;20164;-43
2024/02/13 13:01:44;;;;;;;9.75;2.03;;;;;;;;;;5027819;28;20048;-43
2024/02/13 13:04:15;;;;;;;11.75;2.50;;;;;;;;;;5032443;28;20067;-43
2024/02/13 13:06:46;;;;;;;7.00;2.08;;;;;;;;;;5032116;28;20029;-43
2024/02/13 13:09:14;;;;;;;33.75;4.47;;;;;;;;;;5028796;28;20125;-43
2024/02/13 13:11:41;;;;;;;13.23;2.75;;;;;;;;;;5030375;28;20368;-43
2024/02/13 13:14:11;;;;;;;46.58;4.47;;;;;;;;;;5029620;28;20093;-43
2024/02/13 13:16:38;;;;;;;26.42;3.47;;;;;;;;;;5032394;28;20036;-43
2024/02/13 13:19:09;;;;;;;40.50;4.82;;;;;;;;;;5032275;28;20079;-43
2024/02/13 13:21:37;;;;;;;33.42;4.55;;;;;;;;;;5033078;28;20119;-43
2024/02/13 13:24:04;;;;;;;21.63;4.38;;;;;;;;;;5033342;28;20056;-43
2024/02/13 13:26:39;;;;;;;24.77;3.80;;;;;;;;;;5033017;28;20507;-44
2024/02/13 13:29:06;;;;;;;16.40;3.22;;;;;;;;;;5033681;28;20112;-48
2024/02/13 13:31:42;;;;;;;17.23;2.83;;;;;;;;;;5033305;28;20029;-43
2024/02/13 13:34:11;;;;;;;18.15;2.78;;;;;;;;;;5037587;28;20108;-45
2024/02/13 13:36:39;;;;;;;14.93;3.30;;;;;;;;;;5042096;28;20021;-48
2024/02/13 13:39:08;;;;;;;10.65;2.50;;;;;;;;;;5039062;28;20131;-46
2024/02/13 13:41:37;;;;;;;13.02;3.00;;;;;;;;;;5045012;28;20020;-43
2024/02/13 13:44:04;;;;;;;9.88;2.50;;;;;;;;;;5035509;28;20040;-43
2024/02/13 13:46:31;;;;;;;11.95;2.58;;;;;;;;;;5044806;28;20063;-43
2024/02/13 13:49:04;;;;;;;15.80;2.97;;;;;;;;;;5038534;28;20029;-46
2024/02/13 13:51:33;;;;;;;13.63;2.65;;;;;;;;;;5015298;28;20040;-45
2024/02/13 13:54:00;;;;;;;12.68;2.72;;;;;;;;;;5033246;28;20029;-43
2024/02/13 13:56:27;;;;;;;11.85;3.08;;;;;;;;;;5033436;28;20040;-48
2024/02/13 13:58:59;;;;;;;12.90;2.20;;;;;;;;;;5018867;28;20045;-47
2024/02/13 14:01:38;;;;;;;12.48;2.72;;;;;;;;;;5031482;28;20065;-43
2024/02/13 14:04:09;;;;;;;12.23;2.47;;;;;;;;;;5042274;28;20060;-44
2024/02/13 14:06:36;;;;;;;12.05;2.83;;;;;;;;;;5050332;28;20576;-43
2024/02/13 14:09:03;;;;;;;13.32;3.00;;;;;;;;;;5037741;28;20492;-47
2024/02/13 14:11:30;;;;;;;13.80;2.95;;;;;;;;;;5044597;28;20100;-42
2024/02/13 14:13:57;;;;;;;13.10;2.78;;;;;;;;;;5035886;28;20029;-42
2024/02/13 14:16:25;;;;;;;12.98;2.88;;;;;;;;;;5033641;28;20091;-42
2024/02/13 14:18:52;;;;;;;23.10;3.50;;;;;;;;;;5030713;28;20041;-44
2024/02/13 14:21:20;;;;;;;16.23;3.00;;;;;;;;;;5000827;28;20475;-41
2024/02/13 14:23:48;;;;;;;27.67;3.88;;;;;;;;;;5024310;28;20487;-45
2024/02/13 14:26:15;;;;;;;16.13;3.28;;;;;;;;;;5016481;28;20126;-44
2024/02/13 14:28:43;;;;;;;17.02;2.83;;;;;;;;;;5025335;28;20064;-49
2024/02/13 14:31:12;;;;;;;22.42;2.97;;;;;;;;;;5023685;28;20039;-44
2024/02/13 14:33:39;;;;;;;14.00;2.50;;;;;;;;;;5030344;28;20029;-46
2024/02/13 14:36:08;;;;;;;13.88;2.90;;;;;;;;;;5016165;28;20040;-42
2024/02/13 14:38:36;;;;;;;13.60;2.80;;;;;;;;;;5017070;28;20049;-44
2024/02/13 14:41:03;;;;;;;10.98;2.65;;;;;;;;;;5000113;28;20033;-44